createdAt,value
2023-05-09T00:01:19.751Z,5.30
2023-05-09T00:03:43.998Z,5.28
2023-05-09T00:06:08.592Z,5.28
2023-05-09T00:08:33.697Z,5.20
2023-05-09T00:10:57.342Z,5.70
2023-05-09T00:13:21.096Z,5.32
2023-05-09T00:15:44.803Z,5.53
2023-05-09T00:18:09.032Z,5.20
2023-05-09T00:20:34.128Z,5.38
2023-05-09T00:22:57.950Z,5.57
2023-05-09T00:25:22.905Z,5.70
2023-05-09T00:27:46.462Z,5.20
2023-05-09T00:30:10.983Z,5.22
2023-05-09T00:32:35.048Z,5.65
2023-05-09T00:34:59.035Z,5.40
2023-05-09T00:37:22.569Z,5.35
2023-05-09T00:39:46.197Z,5.30
2023-05-09T00:42:11.108Z,5.68
2023-05-09T00:44:34.764Z,5.60
2023-05-09T00:46:58.408Z,5.80
2023-05-09T00:49:22.091Z,5.28
2023-05-09T00:51:45.686Z,5.63
2023-05-09T00:54:10.274Z,5.30
2023-05-09T00:56:33.907Z,5.50
2023-05-09T00:58:58.973Z,5.35
2023-05-09T01:01:22.751Z,5.15
2023-05-09T01:03:47.504Z,5.57
2023-05-09T01:06:19.460Z,5.88
2023-05-09T01:08:51.291Z,5.50
2023-05-09T01:11:26.339Z,4.80
2023-05-09T01:14:09.789Z,5.15
2023-05-09T01:16:43.252Z,5.22
2023-05-09T01:19:28.837Z,5.18
2023-05-09T01:21:54.052Z,5.03
2023-05-09T01:24:54.024Z,5.20
2023-05-09T01:27:33.740Z,5.10
2023-05-09T01:30:01.244Z,4.95
2023-05-09T01:32:28.383Z,5.30
2023-05-09T01:34:56.760Z,5.05
2023-05-09T01:37:25.608Z,5.07
2023-05-09T01:39:52.410Z,4.75
2023-05-09T01:42:18.160Z,5.20
2023-05-09T01:44:45.695Z,5.00
2023-05-09T01:47:12.146Z,5.22
2023-05-09T01:49:37.984Z,5.20
2023-05-09T01:52:07.150Z,4.72
2023-05-09T01:54:32.258Z,4.88
2023-05-09T01:56:57.008Z,4.75
2023-05-09T01:59:21.795Z,4.60
2023-05-09T02:01:46.220Z,5.40
2023-05-09T02:04:12.180Z,4.70
2023-05-09T02:06:36.681Z,4.05
2023-05-09T02:09:01.806Z,4.53
2023-05-09T02:11:25.859Z,4.35
2023-05-09T02:13:50.712Z,4.13
2023-05-09T02:16:14.501Z,4.57
2023-05-09T02:18:38.461Z,4.22
2023-05-09T02:21:04.519Z,4.00
2023-05-09T02:23:28.599Z,3.92
2023-05-09T02:25:54.264Z,3.83
2023-05-09T02:28:20.891Z,3.75
2023-05-09T02:30:47.384Z,4.18
2023-05-09T02:33:13.272Z,4.38
2023-05-09T02:35:37.434Z,4.05
2023-05-09T02:38:03.326Z,4.20
2023-05-09T02:40:28.657Z,3.88
2023-05-09T02:42:52.257Z,4.15
2023-05-09T02:45:16.031Z,3.50
2023-05-09T02:47:40.492Z,3.67
2023-05-09T02:50:04.877Z,4.28
2023-05-09T02:52:29.542Z,4.00
2023-05-09T02:54:54.686Z,3.72
2023-05-09T02:57:18.565Z,3.70
2023-05-09T02:59:42.190Z,3.78
2023-05-09T03:02:06.504Z,4.18
2023-05-09T03:04:30.532Z,4.10
2023-05-09T03:06:54.424Z,3.92
2023-05-09T03:09:18.568Z,3.35
2023-05-09T03:11:43.621Z,3.95
2023-05-09T03:14:08.473Z,3.80
2023-05-09T03:16:32.736Z,4.15
2023-05-09T03:18:56.805Z,4.15
2023-05-09T03:21:20.421Z,3.70
2023-05-09T03:23:44.138Z,3.85
2023-05-09T03:26:07.775Z,3.95
2023-05-09T03:28:32.991Z,4.32
2023-05-09T03:30:59.865Z,4.03
2023-05-09T03:33:24.885Z,4.07
2023-05-09T03:35:49.081Z,3.75
2023-05-09T03:38:12.955Z,3.90
2023-05-09T03:40:36.699Z,4.07
2023-05-09T03:43:04.333Z,4.13
2023-05-09T03:45:29.315Z,4.07
2023-05-09T03:47:53.746Z,3.67
2023-05-09T03:50:17.705Z,3.88
2023-05-09T03:52:41.722Z,4.60
2023-05-09T03:55:06.195Z,4.32
2023-05-09T03:57:32.863Z,4.30
2023-05-09T03:59:56.441Z,3.92
2023-05-09T04:02:21.641Z,4.10
2023-05-09T04:04:46.952Z,3.80
2023-05-09T04:07:11.043Z,3.85
2023-05-09T04:09:34.859Z,4.30
2023-05-09T04:11:58.388Z,4.50
2023-05-09T04:14:22.348Z,4.25
2023-05-09T04:16:45.969Z,4.05
2023-05-09T04:19:11.431Z,4.43
2023-05-09T04:21:35.344Z,4.43
2023-05-09T04:24:00.194Z,4.40
2023-05-09T04:26:32.384Z,4.30
2023-05-09T04:28:56.788Z,4.20
2023-05-09T04:31:20.512Z,4.57
2023-05-09T04:33:47.034Z,4.50
2023-05-09T04:36:12.718Z,4.70
2023-05-09T04:38:36.418Z,4.05
2023-05-09T04:41:03.942Z,4.95
2023-05-09T04:43:28.233Z,5.13
2023-05-09T04:45:51.965Z,4.63
2023-05-09T04:48:16.026Z,5.07
2023-05-09T04:50:39.648Z,4.93
2023-05-09T04:53:04.673Z,4.43
2023-05-09T04:55:28.207Z,5.45
2023-05-09T04:57:53.060Z,4.47
2023-05-09T05:00:18.607Z,5.32
2023-05-09T05:02:44.229Z,4.43
2023-05-09T05:05:12.470Z,4.45
2023-05-09T05:07:39.251Z,4.60
2023-05-09T05:10:06.584Z,4.90
2023-05-09T05:12:31.200Z,5.25
2023-05-09T05:14:55.296Z,4.80
2023-05-09T05:17:19.730Z,5.07
2023-05-09T05:19:43.888Z,5.03
2023-05-09T05:22:08.322Z,4.95
2023-05-09T05:24:34.424Z,4.70
2023-05-09T05:26:59.613Z,5.18
2023-05-09T05:29:23.201Z,4.70
2023-05-09T05:31:46.825Z,4.40
2023-05-09T05:34:10.371Z,4.78
2023-05-09T05:36:34.516Z,3.80
2023-05-09T05:38:58.103Z,5.00
2023-05-09T05:41:22.431Z,5.30
2023-05-09T05:43:48.163Z,5.15
2023-05-09T05:46:12.342Z,4.63
2023-05-09T05:48:35.895Z,5.22
2023-05-09T05:50:59.505Z,4.72
2023-05-09T05:53:26.656Z,5.10
2023-05-09T05:55:50.386Z,4.93
2023-05-09T05:58:14.082Z,4.85
2023-05-09T06:00:39.132Z,4.57
2023-05-09T06:03:03.686Z,4.90
2023-05-09T06:05:38.483Z,4.78
2023-05-09T06:08:02.513Z,4.40
2023-05-09T06:10:26.125Z,4.85
2023-05-09T06:12:49.808Z,4.40
2023-05-09T06:15:14.053Z,4.90
2023-05-09T06:17:43.067Z,4.18
2023-05-09T06:20:08.511Z,4.60
2023-05-09T06:22:32.140Z,4.03
2023-05-09T06:24:55.665Z,4.30
2023-05-09T06:27:19.410Z,4.50
2023-05-09T06:29:42.947Z,4.45
2023-05-09T06:32:06.916Z,4.40
2023-05-09T06:34:31.828Z,4.05
2023-05-09T06:36:55.435Z,3.83
2023-05-09T06:39:19.003Z,3.63
2023-05-09T06:41:42.762Z,4.10
2023-05-09T06:44:06.831Z,3.65
2023-05-09T06:46:30.635Z,3.95
2023-05-09T06:48:54.191Z,3.95
2023-05-09T06:51:19.206Z,3.85
2023-05-09T06:53:42.745Z,3.67
2023-05-09T06:56:06.830Z,3.67
2023-05-09T06:58:30.447Z,3.42
2023-05-09T07:00:54.253Z,3.35
2023-05-09T07:03:17.830Z,3.30
2023-05-09T07:05:41.601Z,3.67
2023-05-09T07:08:06.733Z,4.15
2023-05-09T07:10:30.402Z,3.40
2023-05-09T07:12:53.975Z,3.75
2023-05-09T07:15:28.701Z,3.30
2023-05-09T07:18:00.792Z,3.95
2023-05-09T07:20:24.362Z,3.50
2023-05-09T07:22:48.000Z,4.57
2023-05-09T07:25:13.279Z,4.03
2023-05-09T07:27:37.376Z,3.88
2023-05-09T07:30:00.909Z,4.28
2023-05-09T07:32:24.603Z,4.53
2023-05-09T07:34:48.202Z,4.05
2023-05-09T07:37:13.677Z,4.10
2023-05-09T07:39:38.900Z,3.55
2023-05-09T07:42:04.189Z,4.00
2023-05-09T07:44:27.774Z,4.10
2023-05-09T07:46:51.321Z,3.95
2023-05-09T07:49:14.882Z,4.00
2023-05-09T07:51:38.594Z,4.60
2023-05-09T07:54:02.094Z,4.03
2023-05-09T07:56:26.492Z,4.15
2023-05-09T07:58:52.172Z,3.85
2023-05-09T08:01:17.356Z,3.65
2023-05-09T08:03:40.926Z,3.92
2023-05-09T08:06:05.280Z,3.80
2023-05-09T08:08:28.886Z,3.25
2023-05-09T08:10:52.525Z,4.15
2023-05-09T08:13:16.223Z,3.38
2023-05-09T08:15:41.448Z,4.07
2023-05-09T08:18:05.212Z,3.78
2023-05-09T08:20:28.862Z,4.10
2023-05-09T08:22:52.408Z,3.30
2023-05-09T08:25:18.252Z,3.67
2023-05-09T08:27:41.817Z,3.60
2023-05-09T08:30:07.421Z,3.67
2023-05-09T08:32:32.384Z,3.38
2023-05-09T08:34:55.930Z,3.67
2023-05-09T08:37:19.597Z,3.70
2023-05-09T08:39:43.348Z,3.60
2023-05-09T08:42:08.049Z,3.50
2023-05-09T08:44:32.578Z,3.47
2023-05-09T08:47:00.436Z,3.70
2023-05-09T08:49:26.154Z,3.55
2023-05-09T08:51:50.046Z,3.50
2023-05-09T08:54:13.915Z,3.35
2023-05-09T08:56:37.992Z,3.42
2023-05-09T08:59:01.649Z,3.15
2023-05-09T09:01:26.794Z,3.50
2023-05-09T09:03:50.677Z,3.38
2023-05-09T09:06:16.115Z,3.20
2023-05-09T09:08:40.384Z,3.40
2023-05-09T09:11:04.243Z,3.08
2023-05-09T09:13:29.034Z,3.33
2023-05-09T09:15:56.052Z,3.53
2023-05-09T09:18:24.939Z,3.70
2023-05-09T09:20:53.478Z,3.78
2023-05-09T09:23:21.576Z,3.75
2023-05-09T09:25:48.211Z,3.40
2023-05-09T09:28:12.814Z,3.72
2023-05-09T09:30:36.510Z,3.45
2023-05-09T09:33:00.850Z,4.00
2023-05-09T09:35:24.904Z,3.92
2023-05-09T09:37:48.787Z,3.80
2023-05-09T09:40:14.452Z,3.90
2023-05-09T09:42:49.240Z,3.85
2023-05-09T09:45:15.171Z,3.67
2023-05-09T09:47:39.090Z,3.42
2023-05-09T09:50:13.138Z,2.95
2023-05-09T09:52:37.088Z,3.47
2023-05-09T09:55:01.932Z,3.55
2023-05-09T09:57:41.755Z,3.25
2023-05-09T10:00:07.877Z,2.78
2023-05-09T10:02:31.477Z,3.38
2023-05-09T10:04:55.092Z,2.92
2023-05-09T10:07:24.437Z,3.10
2023-05-09T10:09:49.458Z,2.97
2023-05-09T10:12:14.761Z,3.30
2023-05-09T10:14:43.324Z,3.10
2023-05-09T10:17:07.293Z,2.92
2023-05-09T10:19:32.252Z,3.05
2023-05-09T10:21:58.441Z,3.10
2023-05-09T10:24:29.611Z,3.40
2023-05-09T10:26:54.685Z,3.30
2023-05-09T10:29:25.247Z,3.30
2023-05-09T10:31:56.340Z,3.42
2023-05-09T10:34:21.035Z,3.35
2023-05-09T10:36:45.016Z,3.00
2023-05-09T10:39:09.317Z,2.97
2023-05-09T10:41:33.002Z,3.38
2023-05-09T10:43:58.229Z,2.92
2023-05-09T10:46:22.161Z,2.97
2023-05-09T10:48:48.337Z,2.95
2023-05-09T10:51:13.487Z,2.92
2023-05-09T10:53:45.333Z,3.17
2023-05-09T10:56:09.448Z,2.83
2023-05-09T10:58:36.256Z,2.92
2023-05-09T11:01:02.314Z,2.78
2023-05-09T11:03:27.136Z,2.83
2023-05-09T11:05:54.514Z,3.08
2023-05-09T11:08:27.144Z,2.40
2023-05-09T11:10:51.271Z,3.00
2023-05-09T11:13:15.040Z,2.95
2023-05-09T11:15:52.568Z,2.80
2023-05-09T11:18:17.133Z,2.72
2023-05-09T11:20:45.535Z,2.83
2023-05-09T11:23:11.861Z,2.90
2023-05-09T11:25:36.201Z,3.05
2023-05-09T11:28:02.544Z,3.17
2023-05-09T11:30:38.237Z,2.80
2023-05-09T11:33:02.287Z,2.88
2023-05-09T11:35:27.951Z,2.80
2023-05-09T11:37:55.202Z,3.03
2023-05-09T11:40:22.009Z,2.85
2023-05-09T11:42:47.636Z,2.83
2023-05-09T11:45:12.943Z,2.60
2023-05-09T11:47:38.331Z,2.92
2023-05-09T11:50:01.872Z,3.03
2023-05-09T11:52:25.861Z,3.10
2023-05-09T11:54:49.384Z,2.83
2023-05-09T11:57:17.245Z,2.92
2023-05-09T11:59:41.356Z,2.92
2023-05-09T12:02:07.908Z,2.50
2023-05-09T12:04:33.012Z,2.90
2023-05-09T12:06:59.370Z,2.70
2023-05-09T12:09:22.995Z,2.95
2023-05-09T12:11:50.366Z,2.53
2023-05-09T12:14:28.669Z,3.13
2023-05-09T12:16:52.350Z,2.40
2023-05-09T12:19:15.969Z,3.08
2023-05-09T12:21:41.495Z,2.83
2023-05-09T12:24:05.490Z,2.85
2023-05-09T12:26:29.304Z,2.63
2023-05-09T12:28:53.795Z,2.78
2023-05-09T12:31:19.063Z,2.50
2023-05-09T12:33:43.041Z,2.80
2023-05-09T12:36:10.255Z,2.65
2023-05-09T12:38:34.527Z,2.63
2023-05-09T12:41:03.938Z,2.75
2023-05-09T12:43:27.847Z,2.97
2023-05-09T12:45:54.377Z,2.50
2023-05-09T12:48:20.067Z,2.17
2023-05-09T12:50:48.791Z,2.78
2023-05-09T12:53:12.313Z,2.90
2023-05-09T12:55:41.825Z,2.92
2023-05-09T12:58:05.595Z,2.67
2023-05-09T13:00:29.441Z,2.80
2023-05-09T13:02:53.215Z,2.70
2023-05-09T13:05:21.883Z,2.90
2023-05-09T13:07:47.548Z,2.70
2023-05-09T13:10:15.148Z,2.90
2023-05-09T13:12:39.613Z,2.53
2023-05-09T13:15:03.386Z,2.80
2023-05-09T13:17:27.066Z,2.50
2023-05-09T13:19:50.956Z,2.70
2023-05-09T13:22:17.478Z,2.65
2023-05-09T13:24:41.125Z,2.80
2023-05-09T13:27:05.763Z,2.97
2023-05-09T13:29:29.345Z,3.20
2023-05-09T13:31:53.045Z,2.78
2023-05-09T13:34:16.601Z,2.80
2023-05-09T13:36:40.174Z,2.90
2023-05-09T13:39:05.464Z,2.80
2023-05-09T13:41:31.869Z,3.28
2023-05-09T13:43:55.589Z,2.92
2023-05-09T13:46:19.341Z,2.50
2023-05-09T13:48:43.200Z,3.22
2023-05-09T13:51:07.914Z,2.60
2023-05-09T13:53:31.591Z,2.80
2023-05-09T13:55:57.113Z,2.75
2023-05-09T13:58:20.748Z,2.63
2023-05-09T14:00:44.291Z,2.78
2023-05-09T14:03:07.984Z,2.80
2023-05-09T14:05:33.272Z,2.88
2023-05-09T14:07:57.600Z,3.20
2023-05-09T14:10:21.889Z,2.65
2023-05-09T14:12:47.654Z,2.90
2023-05-09T14:15:12.116Z,2.65
2023-05-09T14:17:35.908Z,2.85
2023-05-09T14:19:59.911Z,2.60
2023-05-09T14:22:23.729Z,2.92
2023-05-09T14:24:47.293Z,2.80
2023-05-09T14:27:10.909Z,2.70
2023-05-09T14:29:37.594Z,2.67
2023-05-09T14:32:02.399Z,2.70
2023-05-09T14:34:26.677Z,2.60
2023-05-09T14:36:50.657Z,2.50
2023-05-09T14:39:14.256Z,2.65
2023-05-09T14:41:38.377Z,2.33
2023-05-09T14:44:01.938Z,2.70
2023-05-09T14:46:27.096Z,2.63
2023-05-09T14:48:51.536Z,2.92
2023-05-09T14:51:15.718Z,3.03
2023-05-09T14:53:41.902Z,2.83
2023-05-09T14:56:06.857Z,2.67
2023-05-09T15:01:13.333Z,2.90
2023-05-09T15:03:39.566Z,2.75
2023-05-09T15:06:03.329Z,2.80
2023-05-09T15:08:27.082Z,2.78
2023-05-09T15:10:50.949Z,2.65
2023-05-09T15:13:14.800Z,2.90
2023-05-09T15:15:39.504Z,3.05
2023-05-09T15:18:04.789Z,3.35
2023-05-09T15:20:28.615Z,3.20
2023-05-09T15:22:52.627Z,2.90
2023-05-09T15:25:17.496Z,2.40
2023-05-09T15:27:41.132Z,2.67
2023-05-09T15:30:05.668Z,2.92
2023-05-09T15:32:29.476Z,2.80
2023-05-09T15:34:54.442Z,2.80
2023-05-09T15:37:18.389Z,2.67
2023-05-09T15:39:43.594Z,3.05
2023-05-09T15:42:08.909Z,2.90
2023-05-09T15:44:32.479Z,3.08
2023-05-09T15:46:57.064Z,2.95
2023-05-09T15:49:21.458Z,2.70
2023-05-09T15:51:46.629Z,3.05
2023-05-09T15:54:10.321Z,3.38
2023-05-09T15:56:33.991Z,2.53
2023-05-09T15:58:57.504Z,2.90
2023-05-09T16:01:21.303Z,2.80
2023-05-09T16:03:45.123Z,2.72
2023-05-09T16:06:09.124Z,2.83
2023-05-09T16:08:34.135Z,3.17
2023-05-09T16:11:00.850Z,2.67
2023-05-09T16:13:24.434Z,2.85
2023-05-09T16:15:50.076Z,2.65
2023-05-09T16:18:13.775Z,2.88
2023-05-09T16:20:37.536Z,2.63
2023-05-09T16:23:01.110Z,2.80
2023-05-09T16:25:26.409Z,2.47
2023-05-09T16:27:49.944Z,2.60
2023-05-09T16:30:15.641Z,2.30
2023-05-09T16:32:39.442Z,2.90
2023-05-09T16:35:03.220Z,2.67
2023-05-09T16:37:29.114Z,2.75
2023-05-09T16:39:52.869Z,3.10
2023-05-09T16:42:17.814Z,2.70
2023-05-09T16:44:41.654Z,2.80
2023-05-09T16:47:05.192Z,2.88
2023-05-09T16:49:29.418Z,2.75
2023-05-09T16:51:52.976Z,2.80
2023-05-09T16:54:16.670Z,2.88
2023-05-09T16:56:40.228Z,2.60
2023-05-09T16:59:05.524Z,2.42
2023-05-09T17:01:29.225Z,2.55
2023-05-09T17:03:52.999Z,3.33
2023-05-09T17:06:16.660Z,2.83
2023-05-09T17:08:40.211Z,3.08
2023-05-09T17:11:04.477Z,2.92
2023-05-09T17:13:28.373Z,3.22
2023-05-09T17:15:53.566Z,3.13
2023-05-09T17:18:25.352Z,3.03
2023-05-09T17:20:53.210Z,3.88
2023-05-09T17:23:16.967Z,3.45
2023-05-09T17:25:40.712Z,3.53
2023-05-09T17:28:04.453Z,3.38
2023-05-09T17:30:28.145Z,3.28
2023-05-09T17:32:53.241Z,3.10
2023-05-09T17:35:19.404Z,3.45
2023-05-09T17:37:42.950Z,3.38
2023-05-09T17:40:08.273Z,3.20
2023-05-09T17:42:32.228Z,2.90
2023-05-09T17:44:56.527Z,2.97
2023-05-09T17:47:20.025Z,3.50
2023-05-09T17:49:45.772Z,3.15
2023-05-09T17:52:09.308Z,3.30
2023-05-09T17:54:33.010Z,3.15
2023-05-09T17:57:01.176Z,3.53
2023-05-09T17:59:24.785Z,3.28
2023-05-09T18:01:48.401Z,3.30
2023-05-09T18:04:12.883Z,3.45
2023-05-09T18:06:37.954Z,3.22
2023-05-09T18:09:01.754Z,3.45
2023-05-09T18:11:26.213Z,3.20
2023-05-09T18:13:49.963Z,3.70
2023-05-09T18:16:13.547Z,3.33
2023-05-09T18:18:37.311Z,3.15
2023-05-09T18:21:00.927Z,3.80
2023-05-09T18:23:26.726Z,3.33
2023-05-09T18:25:50.413Z,3.45
2023-05-09T18:28:14.052Z,3.53
2023-05-09T18:30:37.652Z,3.60
2023-05-09T18:33:02.579Z,3.53
2023-05-09T18:35:26.268Z,3.17
2023-05-09T18:37:49.906Z,3.50
2023-05-09T18:40:16.254Z,3.83
2023-05-09T18:42:40.009Z,3.60
2023-05-09T18:45:05.939Z,2.97
2023-05-09T18:47:29.547Z,3.40
2023-05-09T18:49:53.101Z,3.78
2023-05-09T18:52:18.916Z,3.70
2023-05-09T18:54:42.601Z,3.75
2023-05-09T18:57:08.425Z,3.40
2023-05-09T18:59:31.950Z,3.50
2023-05-09T19:01:55.716Z,3.63
2023-05-09T19:04:19.848Z,3.60
2023-05-09T19:06:44.022Z,3.53
2023-05-09T19:09:07.584Z,3.40
2023-05-09T19:11:31.234Z,3.85
2023-05-09T19:13:56.189Z,3.45
2023-05-09T19:16:21.696Z,3.45
2023-05-09T19:18:45.294Z,3.60
2023-05-09T19:21:09.537Z,3.25
2023-05-09T19:23:33.078Z,3.47
2023-05-09T19:25:57.404Z,4.00
2023-05-09T19:28:21.593Z,3.38
2023-05-09T19:30:47.268Z,3.40
2023-05-09T19:33:11.442Z,3.40
2023-05-09T19:35:36.493Z,3.67
2023-05-09T19:38:00.147Z,3.50
2023-05-09T19:40:23.834Z,3.67
2023-05-09T19:42:47.401Z,3.30
2023-05-09T19:45:12.611Z,3.10
2023-05-09T19:47:37.571Z,3.50
2023-05-09T19:50:02.118Z,3.25
2023-05-09T19:52:25.689Z,3.42
2023-05-09T19:54:49.486Z,3.30
2023-05-09T19:57:13.305Z,3.50
2023-05-09T19:59:37.031Z,3.40
2023-05-09T20:02:00.891Z,3.53
2023-05-09T20:04:25.940Z,3.75
2023-05-09T20:06:49.528Z,3.83
2023-05-09T20:09:13.459Z,3.15
2023-05-09T20:11:37.000Z,3.42
2023-05-09T20:14:00.633Z,3.25
2023-05-09T20:16:24.267Z,3.38
2023-05-09T20:18:49.073Z,3.58
2023-05-09T20:21:15.747Z,3.50
2023-05-09T20:23:39.813Z,3.22
2023-05-09T20:26:03.620Z,3.50
2023-05-09T20:28:27.322Z,3.20
2023-05-09T20:30:51.060Z,3.20
2023-05-09T20:33:14.806Z,3.55
2023-05-09T20:35:39.723Z,3.53
2023-05-09T20:38:05.165Z,3.40
2023-05-09T20:40:28.854Z,3.15
2023-05-09T20:42:52.757Z,3.55
2023-05-09T20:45:16.276Z,3.60
2023-05-09T20:47:40.686Z,3.17
2023-05-09T20:50:04.245Z,3.38
2023-05-09T20:52:27.938Z,3.80
2023-05-09T20:54:52.950Z,3.67
2023-05-09T20:57:16.606Z,3.83
2023-05-09T20:59:40.198Z,3.88
2023-05-09T21:02:03.871Z,4.18
2023-05-09T21:04:27.524Z,3.50
2023-05-09T21:06:51.228Z,3.95
2023-05-09T21:09:14.863Z,3.63
2023-05-09T21:11:39.912Z,4.07
2023-05-09T21:14:03.486Z,3.53
2023-05-09T21:16:28.282Z,3.78
2023-05-09T21:18:51.839Z,3.92
2023-05-09T21:21:15.477Z,3.97
2023-05-09T21:23:39.058Z,4.25
2023-05-09T21:26:03.376Z,4.32
2023-05-09T21:28:28.302Z,3.90
2023-05-09T21:30:53.048Z,3.60
2023-05-09T21:33:16.673Z,4.10
2023-05-09T21:35:40.365Z,4.15
2023-05-09T21:38:03.870Z,4.30
2023-05-09T21:40:27.668Z,4.43
2023-05-09T21:42:51.215Z,4.18
2023-05-09T21:45:16.630Z,4.38
2023-05-09T21:47:40.748Z,4.15
2023-05-09T21:50:05.281Z,4.57
2023-05-09T21:52:28.844Z,4.45
2023-05-09T21:54:52.396Z,4.50
2023-05-09T21:57:16.034Z,4.85
2023-05-09T21:59:39.715Z,5.05
2023-05-09T22:02:04.690Z,5.10
2023-05-09T22:04:28.354Z,4.65
2023-05-09T22:06:51.913Z,4.40
2023-05-09T22:09:15.642Z,5.10
2023-05-09T22:11:39.796Z,4.82
2023-05-09T22:14:03.599Z,4.80
2023-05-09T22:16:27.349Z,5.13
2023-05-09T22:18:52.406Z,5.03
2023-05-09T22:21:15.945Z,4.82
2023-05-09T22:23:39.665Z,4.63
2023-05-09T22:26:04.421Z,5.10
2023-05-09T22:28:28.286Z,5.60
2023-05-09T22:30:51.866Z,5.43
2023-05-09T22:33:15.535Z,5.50
2023-05-09T22:35:40.752Z,4.95
2023-05-09T22:38:04.366Z,5.85
2023-05-09T22:40:28.796Z,5.22
2023-05-09T22:42:53.483Z,5.53
2023-05-09T22:45:17.069Z,5.97
2023-05-09T22:47:40.696Z,5.35
2023-05-09T22:50:04.296Z,5.63
2023-05-09T22:52:29.298Z,5.90
2023-05-09T22:54:52.859Z,6.10
2023-05-09T22:57:18.055Z,5.68
2023-05-09T22:59:41.584Z,6.03
2023-05-09T23:02:05.495Z,6.13
2023-05-09T23:04:29.076Z,6.10
2023-05-09T23:06:52.733Z,6.38
2023-05-09T23:09:17.724Z,6.22
2023-05-09T23:11:41.366Z,6.13
2023-05-09T23:14:05.452Z,6.13
2023-05-09T23:16:29.037Z,6.15
2023-05-09T23:18:52.659Z,5.68
2023-05-09T23:21:16.185Z,6.43
2023-05-09T23:23:39.757Z,6.35
2023-05-09T23:26:04.846Z,6.00
2023-05-09T23:28:28.422Z,6.28
2023-05-09T23:30:52.273Z,6.28
2023-05-09T23:33:16.328Z,6.30
2023-05-09T23:35:40.024Z,6.45
2023-05-09T23:38:04.425Z,6.03
2023-05-09T23:40:28.131Z,6.53
2023-05-09T23:42:53.044Z,6.70
2023-05-09T23:45:16.756Z,6.43
2023-05-09T23:47:40.308Z,6.63
2023-05-09T23:50:04.024Z,6.10
2023-05-09T23:52:27.559Z,6.72
2023-05-09T23:54:51.277Z,6.57
2023-05-09T23:57:14.808Z,6.68
2023-05-09T23:59:39.893Z,7.40
